Terminal Aerodrome Forecast
Issued by NWS

Home | Current Version | Previous Version | Text Only | Print | Product List | Glossary On
Versions: 1 2 3 4 5 6 7 8 9 10 11 12 13 14 15 16
000
FTUS43 KDLH 210124 AAA
TAFBRD
TAF AMD
KBRD 210124Z 2101/2124 25013G18KT P6SM BKN120 WS020/28045KT
     FM210230 27017G28KT P6SM SCT100
     FM210400 29020G30KT P6SM SCT100
     FM210600 29018G28KT P6SM VCSH SCT025 BKN040
     FM211000 30018G31KT P6SM OVC035
     FM211600 32016G27KT P6SM SCT045
     FM212000 31014G23KT P6SM SCT200=

USA.gov is the U.S. government's official web portal to all federal, state and local government web resources and services.